createdAt,value
2019-05-17T00:01:57.531Z,14.60
2019-05-17T00:04:27.202Z,14.80
2019-05-17T00:06:57.563Z,14.50
2019-05-17T00:09:28.003Z,14.60
2019-05-17T00:11:58.361Z,14.80
2019-05-17T00:14:28.788Z,14.80
2019-05-17T00:16:59.202Z,14.70
2019-05-17T00:19:29.910Z,14.60
2019-05-17T00:22:00.376Z,14.60
2019-05-17T00:24:30.925Z,14.50
2019-05-17T00:27:01.488Z,14.60
2019-05-17T00:29:31.900Z,14.60
2019-05-17T00:32:02.289Z,14.90
2019-05-17T00:34:32.761Z,14.90
2019-05-17T00:37:03.313Z,14.80
2019-05-17T00:39:36.507Z,14.80
2019-05-17T00:42:07.019Z,14.50
2019-05-17T00:44:37.797Z,14.80
2019-05-17T00:47:08.587Z,14.50
2019-05-17T00:49:38.954Z,14.80
2019-05-17T00:52:10.180Z,14.50
2019-05-17T00:54:40.627Z,14.60
2019-05-17T00:57:11.036Z,14.60
2019-05-17T00:59:41.453Z,14.80
2019-05-17T01:02:11.856Z,14.80
2019-05-17T01:04:42.281Z,14.80
2019-05-17T01:07:12.943Z,14.70
2019-05-17T01:09:43.320Z,14.50
2019-05-17T01:12:16.312Z,14.60
2019-05-17T01:14:46.616Z,14.80
2019-05-17T01:17:17.473Z,14.80
2019-05-17T01:19:47.845Z,14.90
2019-05-17T01:22:18.217Z,14.70
2019-05-17T01:24:48.656Z,14.50
2019-05-17T01:27:19.077Z,14.60
2019-05-17T01:29:49.883Z,14.50
2019-05-17T01:32:20.252Z,14.70
2019-05-17T01:34:50.623Z,14.60
2019-05-17T01:37:21.083Z,14.80
2019-05-17T01:39:51.463Z,14.50
2019-05-17T01:42:21.841Z,14.60
2019-05-17T01:44:52.211Z,14.80
2019-05-17T01:47:22.634Z,14.70
2019-05-17T01:49:53.328Z,14.90
2019-05-17T01:52:23.673Z,14.80
2019-05-17T01:54:54.095Z,14.70
2019-05-17T01:57:24.461Z,14.80
2019-05-17T01:59:57.020Z,14.50
2019-05-17T02:02:32.085Z,14.90
2019-05-17T02:05:02.511Z,14.80
2019-05-17T02:07:33.043Z,14.90
2019-05-17T02:10:07.416Z,14.80
2019-05-17T02:12:37.443Z,14.70
2019-05-17T02:15:10.189Z,14.70
2019-05-17T02:17:40.595Z,14.90
2019-05-17T02:20:11.541Z,14.70
2019-05-17T02:22:41.946Z,14.60
2019-05-17T02:25:13.149Z,14.90
2019-05-17T02:27:44.716Z,14.60
2019-05-17T02:30:16.432Z,14.60
2019-05-17T02:32:47.835Z,14.70
2019-05-17T02:35:18.552Z,14.60
2019-05-17T02:37:49.015Z,14.90
2019-05-17T02:40:22.689Z,14.60
2019-05-17T02:42:53.530Z,14.70
2019-05-17T02:45:24.118Z,14.80
2019-05-17T02:47:54.561Z,14.60
2019-05-17T02:50:24.952Z,14.60
2019-05-17T02:52:55.376Z,14.60
2019-05-17T02:55:25.911Z,15.00
2019-05-17T02:57:56.449Z,14.70
2019-05-17T03:00:26.775Z,15.00
2019-05-17T03:02:57.089Z,15.00
2019-05-17T03:05:27.519Z,15.00
2019-05-17T03:07:57.944Z,14.80
2019-05-17T03:10:29.036Z,15.00
2019-05-17T03:12:59.642Z,14.70
2019-05-17T03:15:32.435Z,14.60
2019-05-17T03:18:03.761Z,14.60
2019-05-17T03:20:34.608Z,15.00
2019-05-17T03:23:05.238Z,14.70
2019-05-17T03:25:36.700Z,14.80
2019-05-17T03:28:07.089Z,15.00
2019-05-17T03:30:46.020Z,15.10
2019-05-17T03:33:16.170Z,15.00
2019-05-17T03:35:46.155Z,15.00
2019-05-17T03:38:16.789Z,14.80
2019-05-17T03:41:07.266Z,15.00
2019-05-17T03:43:22.408Z,14.70
2019-05-17T03:45:53.418Z,14.80
2019-05-17T03:48:23.240Z,15.00
2019-05-17T03:50:53.614Z,15.10
2019-05-17T03:53:24.171Z,14.80
2019-05-17T03:55:55.490Z,14.90
2019-05-17T03:58:26.092Z,15.20
2019-05-17T04:00:56.536Z,15.10
2019-05-17T04:03:30.961Z,14.90
2019-05-17T04:05:59.021Z,15.20
2019-05-17T04:08:29.439Z,15.20
2019-05-17T04:11:17.635Z,15.30
2019-05-17T04:13:33.724Z,15.10
2019-05-17T04:16:09.004Z,15.30
2019-05-17T04:18:36.540Z,15.40
2019-05-17T04:21:06.941Z,15.20
2019-05-17T04:23:37.318Z,15.10
2019-05-17T04:26:07.801Z,15.10
2019-05-17T04:28:38.250Z,15.20
2019-05-17T04:31:08.739Z,15.30
2019-05-17T04:33:39.192Z,15.20
2019-05-17T04:36:12.892Z,15.30
2019-05-17T04:38:43.551Z,15.20
2019-05-17T04:41:14.383Z,15.30
2019-05-17T04:43:45.812Z,15.20
2019-05-17T04:46:16.250Z,15.30
2019-05-17T04:48:46.664Z,15.40
2019-05-17T04:51:17.330Z,15.40
2019-05-17T04:53:47.734Z,15.30
2019-05-17T04:56:18.224Z,15.50
2019-05-17T04:58:50.319Z,15.40
2019-05-17T05:01:23.542Z,15.30
2019-05-17T05:03:53.319Z,15.30
2019-05-17T05:06:23.895Z,15.30
2019-05-17T05:08:55.569Z,15.20
2019-05-17T05:11:25.942Z,15.20
2019-05-17T05:13:56.381Z,15.30
2019-05-17T05:16:27.141Z,15.50
2019-05-17T05:18:57.601Z,15.60
2019-05-17T05:21:28.585Z,15.60
2019-05-17T05:23:59.391Z,15.50
2019-05-17T05:26:31.739Z,15.70
2019-05-17T05:29:02.448Z,15.80
2019-05-17T05:31:33.501Z,16.00
2019-05-17T05:34:04.488Z,16.00
2019-05-17T05:36:34.977Z,16.10
2019-05-17T05:39:07.167Z,16.30
2019-05-17T05:41:37.811Z,16.40
2019-05-17T05:44:08.199Z,16.60
2019-05-17T05:46:38.570Z,16.70
2019-05-17T05:49:08.957Z,16.60
2019-05-17T05:51:39.501Z,16.40
2019-05-17T05:54:12.118Z,16.40
2019-05-17T05:56:42.377Z,16.30
2019-05-17T05:59:13.202Z,16.20
2019-05-17T06:01:43.889Z,16.10
2019-05-17T06:04:14.283Z,16.00
2019-05-17T06:06:45.123Z,16.10
2019-05-17T06:09:17.269Z,16.20
2019-05-17T06:11:47.719Z,16.00
2019-05-17T06:14:18.171Z,16.00
2019-05-17T06:16:48.715Z,15.80
2019-05-17T06:19:19.232Z,15.80
2019-05-17T06:21:51.853Z,15.90
2019-05-17T06:24:22.527Z,15.90
2019-05-17T06:26:53.184Z,16.10
2019-05-17T06:29:23.718Z,16.20
2019-05-17T06:31:54.124Z,16.30
2019-05-17T06:34:25.578Z,16.40
2019-05-17T06:36:56.379Z,16.50
2019-05-17T06:39:26.791Z,16.40
2019-05-17T06:41:57.202Z,16.30
2019-05-17T06:44:27.626Z,16.30
2019-05-17T06:46:58.085Z,16.20
2019-05-17T06:49:28.461Z,16.30
2019-05-17T06:51:58.959Z,16.50
2019-05-17T06:54:29.353Z,16.60
2019-05-17T06:57:03.351Z,16.50
2019-05-17T06:59:33.220Z,16.50
2019-05-17T07:02:03.662Z,16.40
2019-05-17T07:04:34.214Z,16.30
2019-05-17T07:07:21.993Z,16.30
2019-05-17T07:09:52.404Z,16.30
2019-05-17T07:12:22.757Z,16.20
2019-05-17T07:14:53.347Z,16.20
2019-05-17T07:17:24.413Z,16.10
2019-05-17T07:19:54.838Z,16.20
2019-05-17T07:22:25.297Z,16.30
2019-05-17T07:24:55.757Z,16.20
2019-05-17T07:27:37.965Z,16.20
2019-05-17T07:29:59.257Z,16.40
2019-05-17T07:32:30.051Z,16.70
2019-05-17T07:35:00.413Z,16.80
2019-05-17T07:37:30.920Z,17.10
2019-05-17T07:40:05.043Z,17.30
2019-05-17T07:42:34.461Z,17.50
2019-05-17T07:45:05.705Z,17.80
2019-05-17T07:47:36.171Z,17.80
2019-05-17T07:50:11.219Z,17.70
2019-05-17T07:52:42.414Z,17.60
2019-05-17T07:55:12.921Z,17.60
2019-05-17T07:57:43.564Z,17.60
2019-05-17T08:00:15.048Z,17.40
2019-05-17T08:02:46.610Z,17.30
2019-05-17T08:05:16.991Z,17.30
2019-05-17T08:07:49.860Z,17.30
2019-05-17T08:10:20.526Z,17.30
2019-05-17T08:12:51.018Z,17.30
2019-05-17T08:15:21.389Z,17.20
2019-05-17T08:17:52.068Z,17.30
2019-05-17T08:20:22.707Z,17.30
2019-05-17T08:22:53.877Z,17.60
2019-05-17T08:25:24.444Z,18.00
2019-05-17T08:27:54.879Z,18.50
2019-05-17T08:30:26.218Z,18.50
2019-05-17T08:32:56.590Z,18.40
2019-05-17T08:35:27.082Z,18.40
2019-05-17T08:38:00.350Z,18.40
2019-05-17T08:40:30.592Z,18.40
2019-05-17T08:43:01.111Z,18.40
2019-05-17T08:45:31.597Z,18.50
2019-05-17T08:48:02.321Z,18.60
2019-05-17T08:50:32.718Z,18.80
2019-05-17T08:53:03.060Z,19.00
2019-05-17T08:55:33.357Z,19.00
2019-05-17T08:58:03.895Z,19.30
2019-05-17T09:00:34.277Z,19.70
2019-05-17T09:03:04.811Z,19.70
2019-05-17T09:05:35.293Z,19.90
2019-05-17T09:08:05.955Z,20.00
2019-05-17T09:10:36.287Z,20.00
2019-05-17T09:13:06.715Z,20.20
2019-05-17T09:15:37.072Z,20.50
2019-05-17T09:18:09.630Z,20.70
2019-05-17T09:20:40.870Z,20.90
2019-05-17T09:23:11.465Z,20.70
2019-05-17T09:25:41.868Z,20.50
2019-05-17T09:28:12.981Z,20.40
2019-05-17T09:30:43.444Z,20.20
2019-05-17T09:33:13.807Z,20.00
2019-05-17T09:35:44.652Z,19.80
2019-05-17T09:38:15.829Z,19.70
2019-05-17T09:40:46.269Z,19.60
2019-05-17T09:43:20.790Z,19.70
2019-05-17T09:45:51.482Z,19.70
2019-05-17T09:48:22.953Z,19.80
2019-05-17T09:50:53.766Z,19.80
2019-05-17T09:53:24.120Z,20.00
2019-05-17T09:55:55.779Z,19.90
2019-05-17T09:58:26.206Z,20.20
2019-05-17T10:00:56.826Z,20.90
2019-05-17T10:03:30.550Z,21.50
2019-05-17T10:06:01.005Z,21.80
2019-05-17T10:08:31.424Z,22.10
2019-05-17T10:11:08.516Z,22.20
2019-05-17T10:13:33.805Z,22.90
2019-05-17T10:16:04.331Z,22.50
2019-05-17T10:18:34.793Z,22.40
2019-05-17T10:21:05.283Z,22.20
2019-05-17T10:23:37.134Z,22.50
2019-05-17T10:26:07.631Z,22.20
2019-05-17T10:28:40.007Z,22.00
2019-05-17T10:31:11.310Z,21.80
2019-05-17T10:33:42.138Z,21.50
2019-05-17T10:36:12.654Z,21.50
2019-05-17T10:38:43.061Z,21.90
2019-05-17T10:41:13.505Z,22.20
2019-05-17T10:43:43.924Z,22.20
2019-05-17T10:46:14.330Z,21.70
2019-05-17T10:48:45.013Z,21.60
2019-05-17T10:51:15.534Z,21.40
2019-05-17T10:53:45.946Z,21.40
2019-05-17T10:56:16.303Z,21.40
2019-05-17T10:58:49.227Z,21.30
2019-05-17T11:01:20.047Z,21.00
2019-05-17T11:03:50.770Z,21.00
2019-05-17T11:06:21.267Z,21.30
2019-05-17T11:08:51.680Z,21.90
2019-05-17T11:11:22.066Z,22.10
2019-05-17T11:13:53.133Z,22.00
2019-05-17T11:16:23.877Z,22.10
2019-05-17T11:18:54.280Z,22.30
2019-05-17T11:21:24.704Z,22.40
2019-05-17T11:23:55.113Z,22.00
2019-05-17T11:26:26.646Z,21.60
2019-05-17T11:28:57.021Z,21.10
2019-05-17T11:31:27.415Z,20.80
2019-05-17T11:33:57.821Z,20.60
2019-05-17T11:36:28.228Z,20.60
2019-05-17T11:38:58.577Z,20.70
2019-05-17T11:41:29.290Z,20.70
2019-05-17T11:43:59.694Z,20.90
2019-05-17T11:46:36.255Z,21.20
2019-05-17T11:49:04.738Z,21.80
2019-05-17T11:51:35.178Z,21.80
2019-05-17T11:54:05.943Z,21.60
2019-05-17T11:56:36.354Z,21.70
2019-05-17T11:59:08.043Z,22.50
2019-05-17T12:01:38.466Z,22.80
2019-05-17T12:04:08.861Z,22.60
2019-05-17T12:06:39.298Z,22.10
2019-05-17T12:09:10.810Z,21.90
2019-05-17T12:11:41.216Z,21.60
2019-05-17T12:14:11.668Z,21.80
2019-05-17T12:16:42.218Z,21.40
2019-05-17T12:19:13.712Z,21.30
2019-05-17T12:21:44.069Z,21.40
2019-05-17T12:24:14.523Z,21.70
2019-05-17T12:26:47.441Z,21.70
2019-05-17T12:29:17.578Z,21.60
2019-05-17T12:31:48.060Z,21.30
2019-05-17T12:34:18.466Z,20.70
2019-05-17T12:36:49.114Z,18.60
2019-05-17T12:39:19.600Z,17.00
2019-05-17T12:41:50.232Z,15.60
2019-05-17T12:44:21.010Z,16.50
2019-05-17T12:46:52.408Z,16.00
2019-05-17T12:49:22.862Z,15.40
2019-05-17T12:51:53.789Z,15.60
2019-05-17T12:54:24.393Z,15.70
2019-05-17T12:56:55.046Z,15.90
2019-05-17T12:59:25.535Z,16.00
2019-05-17T13:01:56.060Z,16.10
2019-05-17T13:04:26.415Z,16.20
2019-05-17T13:06:56.875Z,16.30
2019-05-17T13:09:27.282Z,16.30
2019-05-17T13:11:57.763Z,16.40
2019-05-17T13:14:28.254Z,16.30
2019-05-17T13:16:59.157Z,16.30
2019-05-17T13:19:29.641Z,16.30
2019-05-17T13:22:00.138Z,16.60
2019-05-17T13:24:32.568Z,16.20
2019-05-17T13:27:02.999Z,15.00
2019-05-17T13:29:33.407Z,15.60
2019-05-17T13:32:03.994Z,14.90
2019-05-17T13:34:36.634Z,14.90
2019-05-17T13:37:07.059Z,15.30
2019-05-17T13:39:39.008Z,15.30
2019-05-17T13:42:09.751Z,15.30
2019-05-17T13:44:41.214Z,15.20
2019-05-17T13:47:11.946Z,15.10
2019-05-17T13:49:42.391Z,15.10
2019-05-17T13:52:12.838Z,15.10
2019-05-17T13:54:43.280Z,15.10
2019-05-17T13:57:13.984Z,15.20
2019-05-17T13:59:46.710Z,15.20
2019-05-17T14:02:17.061Z,15.10
2019-05-17T14:04:47.544Z,15.10
2019-05-17T14:07:17.983Z,15.00
2019-05-17T14:09:49.617Z,14.90
2019-05-17T14:12:20.035Z,15.10
2019-05-17T14:14:50.401Z,15.20
2019-05-17T14:17:21.110Z,15.30
2019-05-17T14:19:51.909Z,15.40
2019-05-17T14:22:22.341Z,15.50
2019-05-17T14:24:52.789Z,15.50
2019-05-17T14:27:23.354Z,15.60
2019-05-17T14:29:54.218Z,15.80
2019-05-17T14:32:24.692Z,15.80
2019-05-17T14:34:57.337Z,15.60
2019-05-17T14:37:29.919Z,15.80
2019-05-17T14:40:01.734Z,16.00
2019-05-17T14:42:32.307Z,16.00
2019-05-17T14:45:02.867Z,16.20
2019-05-17T14:47:33.409Z,16.10
2019-05-17T14:50:03.846Z,16.20
2019-05-17T14:52:35.425Z,16.20
2019-05-17T14:55:06.605Z,16.30
2019-05-17T14:57:36.971Z,16.20
2019-05-17T15:00:08.344Z,16.40
2019-05-17T15:02:38.735Z,16.40
2019-05-17T15:05:09.950Z,16.50
2019-05-17T15:07:40.354Z,16.50
2019-05-17T15:10:12.288Z,16.40
2019-05-17T15:12:43.370Z,16.50
2019-05-17T15:15:14.126Z,16.60
2019-05-17T15:17:44.495Z,16.40
2019-05-17T15:20:15.200Z,16.50
2019-05-17T15:22:45.609Z,16.40
2019-05-17T15:25:16.356Z,16.50
2019-05-17T15:27:46.734Z,16.60
2019-05-17T15:30:17.574Z,16.80
2019-05-17T15:32:48.055Z,16.70
2019-05-17T15:35:18.523Z,16.80
2019-05-17T15:37:49.042Z,17.00
2019-05-17T15:40:19.521Z,17.20
2019-05-17T15:42:49.971Z,17.20
2019-05-17T15:45:20.438Z,17.10
2019-05-17T15:47:51.136Z,17.20
2019-05-17T15:50:21.535Z,17.30
2019-05-17T15:52:52.374Z,17.40
2019-05-17T15:55:22.798Z,17.50
2019-05-17T15:57:53.168Z,17.60
2019-05-17T16:00:24.074Z,17.70
2019-05-17T16:02:55.535Z,17.70
2019-05-17T16:05:27.054Z,17.70
2019-05-17T16:07:57.860Z,17.80
2019-05-17T16:10:28.412Z,17.90
2019-05-17T16:13:02.783Z,18.00
2019-05-17T16:15:31.211Z,18.20
2019-05-17T16:18:01.683Z,18.50
2019-05-17T16:20:32.235Z,18.70
2019-05-17T16:23:02.758Z,18.80
2019-05-17T16:25:34.064Z,18.80
2019-05-17T16:28:04.614Z,18.90
2019-05-17T16:30:34.992Z,19.00
2019-05-17T16:33:05.682Z,19.00
2019-05-17T16:35:36.425Z,19.10
2019-05-17T16:38:07.071Z,19.10
2019-05-17T16:40:37.813Z,19.20
2019-05-17T16:43:17.814Z,19.20
2019-05-17T16:45:40.272Z,19.20
2019-05-17T16:48:12.184Z,19.20
2019-05-17T16:50:42.719Z,19.20
2019-05-17T16:53:13.235Z,19.20
2019-05-17T16:55:44.237Z,19.20
2019-05-17T16:58:15.137Z,19.20
2019-05-17T17:00:46.246Z,19.10
2019-05-17T17:03:16.655Z,19.00
2019-05-17T17:05:48.242Z,19.00
2019-05-17T17:08:18.643Z,18.90
2019-05-17T17:10:48.980Z,18.90
2019-05-17T17:13:32.390Z,18.80
2019-05-17T17:15:52.757Z,18.80
2019-05-17T17:18:23.180Z,18.80
2019-05-17T17:20:53.570Z,18.80
2019-05-17T17:23:23.983Z,18.70
2019-05-17T17:25:54.439Z,18.70
2019-05-17T17:28:25.581Z,18.70
2019-05-17T17:30:56.220Z,18.70
2019-05-17T17:33:26.963Z,18.70
2019-05-17T17:35:58.850Z,18.70
2019-05-17T17:38:29.552Z,18.70
2019-05-17T17:41:01.849Z,18.70
2019-05-17T17:43:32.480Z,18.70
2019-05-17T17:46:02.861Z,18.70
2019-05-17T17:48:33.459Z,18.70
2019-05-17T17:51:03.864Z,18.70
2019-05-17T17:53:34.279Z,18.70
2019-05-17T17:56:04.697Z,18.70
2019-05-17T17:58:36.588Z,18.60
2019-05-17T18:01:07.202Z,18.60
2019-05-17T18:03:37.797Z,18.60
2019-05-17T18:06:08.276Z,18.60
2019-05-17T18:08:38.735Z,18.50
2019-05-17T18:11:10.284Z,18.50
2019-05-17T18:13:40.872Z,18.50
2019-05-17T18:16:11.418Z,18.40
2019-05-17T18:18:41.816Z,18.40
2019-05-17T18:21:12.627Z,18.30
2019-05-17T18:23:43.092Z,18.30
2019-05-17T18:26:13.785Z,18.20
2019-05-17T18:28:44.229Z,18.20
2019-05-17T18:31:14.863Z,18.20
2019-05-17T18:33:45.242Z,18.20
2019-05-17T18:36:15.906Z,18.10
2019-05-17T18:38:49.778Z,18.10
2019-05-17T18:41:21.377Z,18.10
2019-05-17T18:43:51.738Z,18.10
2019-05-17T18:46:22.619Z,18.00
2019-05-17T18:48:53.064Z,17.90
2019-05-17T18:51:23.637Z,17.90
2019-05-17T18:53:54.995Z,17.80
2019-05-17T18:56:25.419Z,17.80
2019-05-17T18:58:56.144Z,17.80
2019-05-17T19:01:26.524Z,17.80
2019-05-17T19:03:56.918Z,17.70
2019-05-17T19:06:27.302Z,17.70
2019-05-17T19:08:57.665Z,17.70
2019-05-17T19:11:29.843Z,17.70
2019-05-17T19:14:00.278Z,17.70
2019-05-17T19:16:30.757Z,17.70
2019-05-17T19:19:01.009Z,17.70
2019-05-17T19:21:31.440Z,17.70
2019-05-17T19:24:01.845Z,17.70
2019-05-17T19:26:32.262Z,17.70
2019-05-17T19:29:02.935Z,17.70
2019-05-17T19:31:33.420Z,17.60
2019-05-17T19:34:03.995Z,17.50
2019-05-17T19:36:34.384Z,17.50
2019-05-17T19:39:05.772Z,17.40
2019-05-17T19:41:36.628Z,17.40
2019-05-17T19:44:07.480Z,17.30
2019-05-17T19:46:39.233Z,17.30
2019-05-17T19:49:09.646Z,17.30
2019-05-17T19:51:40.236Z,17.40
2019-05-17T19:54:10.552Z,17.40
2019-05-17T19:56:41.214Z,17.40
2019-05-17T19:59:11.611Z,17.40
2019-05-17T20:01:42.236Z,17.40
2019-05-17T20:04:12.631Z,17.30
2019-05-17T20:06:43.116Z,17.30
2019-05-17T20:09:13.561Z,17.20
2019-05-17T20:11:43.981Z,17.20
2019-05-17T20:14:14.485Z,17.20
2019-05-17T20:16:44.860Z,17.20
2019-05-17T20:19:16.498Z,17.20
2019-05-17T20:21:46.884Z,17.10
2019-05-17T20:24:17.292Z,17.10
2019-05-17T20:26:47.730Z,17.00
2019-05-17T20:29:18.070Z,17.00
2019-05-17T20:31:49.731Z,16.90
2019-05-17T20:34:20.172Z,16.90
2019-05-17T20:36:50.789Z,16.80
2019-05-17T20:39:21.279Z,16.80
2019-05-17T20:41:52.124Z,16.70
2019-05-17T20:44:22.919Z,16.70
2019-05-17T20:46:53.334Z,16.70
2019-05-17T20:49:23.787Z,16.80
2019-05-17T20:51:54.199Z,16.90
2019-05-17T20:54:24.535Z,16.90
2019-05-17T20:56:55.783Z,16.90
2019-05-17T20:59:26.501Z,16.90
2019-05-17T21:01:56.921Z,16.80
2019-05-17T21:04:27.486Z,16.60
2019-05-17T21:06:58.011Z,16.50
2019-05-17T21:09:28.312Z,16.40
2019-05-17T21:11:58.725Z,16.40
2019-05-17T21:14:29.078Z,16.40
2019-05-17T21:16:59.502Z,16.40
2019-05-17T21:19:29.882Z,16.30
2019-05-17T21:22:00.262Z,16.30
2019-05-17T21:24:30.605Z,16.30
2019-05-17T21:27:01.186Z,16.30
2019-05-17T21:29:31.516Z,16.30
2019-05-17T21:32:01.865Z,16.20
2019-05-17T21:34:32.217Z,16.20
2019-05-17T21:37:02.620Z,16.20
2019-05-17T21:39:32.999Z,16.20
2019-05-17T21:42:03.407Z,16.20
2019-05-17T21:44:33.907Z,16.20
2019-05-17T21:47:05.160Z,16.20
2019-05-17T21:49:35.910Z,16.20
2019-05-17T21:52:06.893Z,16.20
2019-05-17T21:54:37.311Z,16.10
2019-05-17T21:57:07.991Z,16.10
2019-05-17T21:59:38.282Z,16.10
2019-05-17T22:02:08.713Z,16.10
2019-05-17T22:04:39.100Z,16.10
2019-05-17T22:07:09.683Z,16.10
2019-05-17T22:09:40.074Z,16.10
2019-05-17T22:12:12.252Z,16.10
2019-05-17T22:14:42.836Z,16.20
2019-05-17T22:17:13.214Z,16.10
2019-05-17T22:19:43.643Z,16.10
2019-05-17T22:22:14.034Z,16.10
2019-05-17T22:24:44.411Z,16.10
2019-05-17T22:27:14.772Z,16.00
2019-05-17T22:29:45.121Z,16.00
2019-05-17T22:32:15.504Z,15.90
2019-05-17T22:34:45.823Z,15.90
2019-05-17T22:37:17.629Z,15.90
2019-05-17T22:39:48.275Z,15.80
2019-05-17T22:42:19.071Z,15.80
2019-05-17T22:44:50.067Z,15.80
2019-05-17T22:47:20.745Z,15.70
2019-05-17T22:49:51.141Z,15.70
2019-05-17T22:52:21.495Z,15.60
2019-05-17T22:54:51.849Z,15.60
2019-05-17T22:57:23.829Z,15.60
2019-05-17T22:59:54.214Z,15.60
2019-05-17T23:02:24.585Z,15.50
2019-05-17T23:04:55.504Z,15.50
2019-05-17T23:07:25.926Z,15.40
2019-05-17T23:09:56.308Z,15.40
2019-05-17T23:12:26.843Z,15.30
2019-05-17T23:14:58.503Z,15.20
2019-05-17T23:17:28.818Z,15.20
2019-05-17T23:19:59.169Z,15.20
2019-05-17T23:22:29.582Z,15.20
2019-05-17T23:25:00.047Z,15.10
2019-05-17T23:27:30.386Z,15.20
2019-05-17T23:30:00.785Z,15.10
2019-05-17T23:32:31.389Z,15.10
2019-05-17T23:35:01.771Z,15.10
2019-05-17T23:37:32.213Z,15.10
2019-05-17T23:40:02.567Z,15.10
2019-05-17T23:42:34.011Z,15.10
2019-05-17T23:45:04.789Z,15.10
2019-05-17T23:47:35.195Z,15.20
2019-05-17T23:50:06.440Z,15.20
2019-05-17T23:52:36.800Z,15.20
2019-05-17T23:55:07.405Z,15.20
2019-05-17T23:57:37.727Z,15.20
